createdAt,value
2023-02-11T00:04:01.364Z,14.5
2023-02-11T00:09:39.059Z,14.5
2023-02-11T00:15:17.692Z,14.4
2023-02-11T00:20:58.443Z,14.3
2023-02-11T00:26:35.090Z,14.3
2023-02-11T00:32:13.103Z,14.2
2023-02-11T00:37:35.677Z,14.2
2023-02-11T00:42:58.375Z,14.2
2023-02-11T00:48:37.476Z,14.1
2023-02-11T00:53:59.087Z,14.1
2023-02-11T00:59:36.459Z,14.1
2023-02-11T01:05:14.878Z,14
2023-02-11T01:10:52.499Z,13.9
2023-02-11T01:16:30.288Z,14
2023-02-11T01:22:08.402Z,14
2023-02-11T01:27:45.881Z,13.9
2023-02-11T01:33:08.076Z,13.9
2023-02-11T01:38:45.581Z,13.8
2023-02-11T01:44:22.964Z,13.8
2023-02-11T01:50:00.573Z,13.8
2023-02-11T01:55:38.250Z,13.7
2023-02-11T02:01:16.070Z,13.6
2023-02-11T02:06:52.410Z,13.6
2023-02-11T02:12:30.029Z,13.7
2023-02-11T02:18:07.411Z,13.6
2023-02-11T02:22:57.580Z,13.6
2023-02-11T02:28:35.591Z,13.6
2023-02-11T02:34:28.419Z,13.4
2023-02-11T02:40:05.526Z,13.5
2023-02-11T02:45:43.488Z,13.6
2023-02-11T02:51:21.705Z,13.4
2023-02-11T02:56:58.597Z,13.4
2023-02-11T03:02:39.944Z,13.4
2023-02-11T03:08:17.331Z,13.4
2023-02-11T03:13:54.677Z,13.3
2023-02-11T03:19:33.238Z,13.3
2023-02-11T03:25:10.464Z,13.3
2023-02-11T03:30:47.195Z,13.3
2023-02-11T03:36:11.121Z,13.3
2023-02-11T03:41:33.333Z,13.3
2023-02-11T03:46:55.844Z,13.3
2023-02-11T03:52:02.379Z,13.4
2023-02-11T03:57:08.345Z,13.4
2023-02-11T04:02:29.417Z,13.3
2023-02-11T04:08:07.625Z,13.3
2023-02-11T04:13:14.035Z,13.3
2023-02-11T04:18:53.071Z,13.3
2023-02-11T04:24:30.280Z,13.2
2023-02-11T04:30:07.501Z,13.2
2023-02-11T04:35:44.214Z,13.2
2023-02-11T04:41:06.428Z,13.2
2023-02-11T04:46:44.225Z,13.1
2023-02-11T04:52:22.203Z,13.2
2023-02-11T04:57:59.659Z,13.1
2023-02-11T05:03:37.053Z,13.1
2023-02-11T05:09:14.527Z,13.1
2023-02-11T05:14:53.228Z,13.1
2023-02-11T05:20:33.855Z,13
2023-02-11T05:26:27.250Z,13
2023-02-11T05:32:05.643Z,13
2023-02-11T05:37:42.592Z,12.9
2023-02-11T05:43:20.236Z,12.9
2023-02-11T05:48:43.802Z,13
2023-02-11T05:54:21.996Z,13
2023-02-11T05:59:59.120Z,12.9
2023-02-11T06:05:36.654Z,12.9
2023-02-11T06:11:13.325Z,12.9
2023-02-11T06:16:34.125Z,13
2023-02-11T06:22:01.117Z,13
2023-02-11T06:28:04.486Z,13
2023-02-11T06:34:05.871Z,12.9
2023-02-11T06:39:43.096Z,12.5
2023-02-11T06:45:19.953Z,12.2
2023-02-11T06:50:58.579Z,12.6
2023-02-11T06:56:35.506Z,12.6
2023-02-11T07:02:12.382Z,12.5
2023-02-11T07:07:50.869Z,12.6
2023-02-11T07:13:31.743Z,12.6
2023-02-11T07:19:09.883Z,12.6
2023-02-11T07:24:45.046Z,12.6
2023-02-11T07:30:24.010Z,12.7
2023-02-11T07:36:02.270Z,12.7
2023-02-11T07:41:38.986Z,12.7
2023-02-11T07:47:17.583Z,12.7
2023-02-11T07:52:57.106Z,12.6
2023-02-11T07:58:33.206Z,12.6
2023-02-11T08:04:14.396Z,12.6
2023-02-11T08:09:52.371Z,12.5
2023-02-11T08:15:29.656Z,12.6
2023-02-11T08:21:08.163Z,12.6
2023-02-11T08:26:48.776Z,12.6
2023-02-11T08:32:26.023Z,12.6
2023-02-11T08:38:06.092Z,12.6
2023-02-11T08:44:00.871Z,12.6
2023-02-11T08:49:23.203Z,12.7
2023-02-11T08:54:46.149Z,12.7
2023-02-11T09:00:24.138Z,12.6
2023-02-11T09:06:03.487Z,12.7
2023-02-11T09:11:09.940Z,12.6
2023-02-11T09:16:47.919Z,12.6
2023-02-11T09:22:24.377Z,12.6
2023-02-11T09:28:01.723Z,12.6
2023-02-11T09:33:41.319Z,12.6
2023-02-11T09:39:18.232Z,12.7
2023-02-11T09:44:44.301Z,12.6
2023-02-11T09:50:22.484Z,12.7
2023-02-11T09:56:01.866Z,12.7
2023-02-11T10:01:54.371Z,12.8
2023-02-11T10:07:16.812Z,12.8
2023-02-11T10:13:11.147Z,12.7
2023-02-11T10:18:33.356Z,12.8
2023-02-11T10:24:11.894Z,12.8
2023-02-11T10:29:34.077Z,12.8
2023-02-11T10:34:29.128Z,12.9
2023-02-11T10:40:07.419Z,12.9
2023-02-11T10:45:44.678Z,12.9
2023-02-11T10:51:06.738Z,12.9
2023-02-11T10:56:43.970Z,13
2023-02-11T11:02:32.072Z,13
2023-02-11T11:08:12.236Z,13
2023-02-11T11:13:49.470Z,13
2023-02-11T11:19:44.165Z,13
2023-02-11T11:25:21.819Z,12.9
2023-02-11T11:31:00.720Z,13
2023-02-11T11:36:38.122Z,12.9
2023-02-11T11:42:15.653Z,12.9
2023-02-11T11:47:37.577Z,12.9
2023-02-11T11:53:15.089Z,12.9
2023-02-11T11:58:22.021Z,12.9
2023-02-11T12:04:00.712Z,13
2023-02-11T12:09:39.585Z,13
2023-02-11T12:14:46.607Z,13.1
2023-02-11T12:19:38.070Z,13.1
2023-02-11T12:25:15.439Z,13.1
2023-02-11T12:30:53.686Z,13
2023-02-11T12:36:34.368Z,13.1
2023-02-11T12:42:12.981Z,13.1
2023-02-11T12:47:49.839Z,13.1
2023-02-11T12:53:27.593Z,13.1
2023-02-11T12:59:00.456Z,13.1
2023-02-11T13:04:37.503Z,13.1
2023-02-11T13:10:19.012Z,13.1
2023-02-11T13:15:56.839Z,13.1
2023-02-11T13:21:05.606Z,13.2
2023-02-11T13:26:27.712Z,13.3
2023-02-11T13:32:05.284Z,13.3
2023-02-11T13:37:28.406Z,13.2
2023-02-11T13:42:50.709Z,13.3
2023-02-11T13:48:27.492Z,13.3
2023-02-11T13:53:33.005Z,13.3
2023-02-11T13:59:10.196Z,13.2
2023-02-11T14:04:49.061Z,13.3
2023-02-11T14:10:26.851Z,13.3
2023-02-11T14:16:06.057Z,13.3
2023-02-11T14:21:58.568Z,13.4
2023-02-11T14:27:35.154Z,13.4
2023-02-11T14:33:13.694Z,13.4
2023-02-11T14:38:50.841Z,13.3
2023-02-11T14:44:29.654Z,13.3
2023-02-11T14:49:52.233Z,13.4
2023-02-11T14:55:31.326Z,13.3
2023-02-11T15:01:09.585Z,13.4
2023-02-11T15:06:31.960Z,13.3
2023-02-11T15:12:09.351Z,13.4
2023-02-11T15:17:47.621Z,13.3
2023-02-11T15:22:55.448Z,13.3
2023-02-11T15:28:36.675Z,13.3
2023-02-11T15:33:59.445Z,13.3
2023-02-11T15:39:36.912Z,13.3
2023-02-11T15:45:29.488Z,13.3
2023-02-11T15:51:07.369Z,13.3
2023-02-11T15:56:45.449Z,13.3
2023-02-11T16:02:24.701Z,13.3
2023-02-11T16:08:01.954Z,13.3
2023-02-11T16:13:39.626Z,13.3
2023-02-11T16:19:40.701Z,13.3
2023-02-11T16:25:03.461Z,13.3
2023-02-11T16:30:41.710Z,13.2
2023-02-11T16:36:25.348Z,13.3
2023-02-11T16:42:02.487Z,13.2
2023-02-11T16:47:24.891Z,13.3
2023-02-11T16:53:05.748Z,13.3
2023-02-11T16:58:43.074Z,13.2
2023-02-11T17:04:21.505Z,13.2
2023-02-11T17:10:09.991Z,13.2
2023-02-11T17:15:32.540Z,13.3
2023-02-11T17:20:55.720Z,13.1
2023-02-11T17:26:34.205Z,13.1
2023-02-11T17:31:57.705Z,13.1
2023-02-11T17:37:35.774Z,13.1
2023-02-11T17:43:16.574Z,13.1
2023-02-11T17:48:41.352Z,13.1
2023-02-11T17:54:07.079Z,13.1
2023-02-11T17:59:30.580Z,13.1
2023-02-11T18:05:11.656Z,13.1
2023-02-11T18:10:20.921Z,13.1
2023-02-11T18:15:58.854Z,13.1
2023-02-11T18:21:37.364Z,13.1
2023-02-11T18:27:15.388Z,13.1
2023-02-11T18:32:56.310Z,12.7
2023-02-11T18:38:19.208Z,12.7
2023-02-11T18:43:40.366Z,12.8
2023-02-11T18:49:18.995Z,12.8
2023-02-11T18:54:56.665Z,12.8
2023-02-11T19:00:35.169Z,12.9
2023-02-11T19:06:14.088Z,12.9
2023-02-11T19:11:51.678Z,13
2023-02-11T19:17:17.339Z,13
2023-02-11T19:22:27.039Z,13.1
2023-02-11T19:27:48.139Z,13.1
2023-02-11T19:33:26.867Z,13.2
2023-02-11T19:39:04.136Z,13.2
2023-02-11T19:44:41.638Z,13.1
2023-02-11T19:50:20.185Z,13.2
2023-02-11T19:55:57.941Z,13.1
2023-02-11T20:01:35.732Z,13.1
2023-02-11T20:07:16.400Z,13.1
2023-02-11T20:12:23.580Z,13.2
2023-02-11T20:18:12.568Z,13.2
2023-02-11T20:23:50.531Z,13.1
2023-02-11T20:29:27.982Z,13.1
2023-02-11T20:35:05.217Z,13.1
2023-02-11T20:40:47.085Z,13.2
2023-02-11T20:46:09.922Z,13.2
2023-02-11T20:51:47.388Z,13.2
2023-02-11T20:57:24.190Z,13.2
2023-02-11T21:03:01.089Z,13.1
2023-02-11T21:08:23.139Z,13.2
2023-02-11T21:13:44.954Z,13.2
2023-02-11T21:19:22.689Z,13.3
2023-02-11T21:25:00.059Z,13.2
2023-02-11T21:30:45.133Z,13.2
2023-02-11T21:36:25.656Z,13.1
2023-02-11T21:41:31.954Z,13.1
2023-02-11T21:47:08.731Z,13.2
2023-02-11T21:52:31.486Z,13.2
2023-02-11T21:58:10.719Z,13.1
2023-02-11T22:03:48.353Z,13.1
2023-02-11T22:09:27.196Z,13.1
2023-02-11T22:15:05.453Z,13.1
2023-02-11T22:20:43.349Z,13.1
2023-02-11T22:26:19.905Z,13.1
2023-02-11T22:31:57.772Z,13
2023-02-11T22:37:23.409Z,13
2023-02-11T22:43:00.652Z,13.1
2023-02-11T22:48:39.730Z,13.1
2023-02-11T22:54:16.740Z,13
2023-02-11T22:59:53.498Z,13
2023-02-11T23:05:32.489Z,13
2023-02-11T23:11:10.349Z,13.1
2023-02-11T23:16:32.462Z,13.1
2023-02-11T23:22:10.572Z,13.1
2023-02-11T23:27:48.326Z,13.1
2023-02-11T23:33:27.192Z,13.1
2023-02-11T23:39:04.805Z,13.1
2023-02-11T23:44:42.715Z,13.1
2023-02-11T23:49:50.354Z,13.1
2023-02-11T23:55:27.084Z,13.1
